sensor_id;sensor_type;location;lat;lon;timestamp;P1;durP1;ratioP1;P2;durP2;ratioP2
57718;SDS011;43561;50.090;18.522;2023-03-11T00:09:41;2.88;;;2.22;;
57718;SDS011;43561;50.090;18.522;2023-03-11T00:19:42;2.10;;;1.33;;
57718;SDS011;43561;50.090;18.522;2023-03-11T00:29:44;3.35;;;1.05;;
57718;SDS011;43561;50.090;18.522;2023-03-11T00:39:47;2.15;;;1.13;;
57718;SDS011;43561;50.090;18.522;2023-03-11T00:49:48;1.65;;;0.55;;
57718;SDS011;43561;50.090;18.522;2023-03-11T01:00:00;1.58;;;1.02;;
57718;SDS011;43561;50.090;18.522;2023-03-11T01:10:03;0.93;;;0.60;;
57718;SDS011;43561;50.090;18.522;2023-03-11T01:20:06;2.35;;;1.27;;
57718;SDS011;43561;50.090;18.522;2023-03-11T01:30:09;4.68;;;1.92;;
57718;SDS011;43561;50.090;18.522;2023-03-11T01:40:28;3.70;;;1.77;;
57718;SDS011;43561;50.090;18.522;2023-03-11T01:50:52;2.45;;;1.95;;
57718;SDS011;43561;50.090;18.522;2023-03-11T02:00:54;2.53;;;1.52;;
57718;SDS011;43561;50.090;18.522;2023-03-11T02:10:57;1.02;;;0.77;;
57718;SDS011;43561;50.090;18.522;2023-03-11T02:31:32;2.08;;;0.70;;
57718;SDS011;43561;50.090;18.522;2023-03-11T02:41:39;6.28;;;1.35;;
57718;SDS011;43561;50.090;18.522;2023-03-11T02:51:44;1.58;;;1.10;;
57718;SDS011;43561;50.090;18.522;2023-03-11T03:01:47;2.42;;;1.23;;
57718;SDS011;43561;50.090;18.522;2023-03-11T03:11:49;4.72;;;1.60;;
57718;SDS011;43561;50.090;18.522;2023-03-11T03:21:51;1.95;;;1.25;;
57718;SDS011;43561;50.090;18.522;2023-03-11T03:31:55;0.90;;;0.70;;
57718;SDS011;43561;50.090;18.522;2023-03-11T03:41:57;1.23;;;0.57;;
57718;SDS011;43561;50.090;18.522;2023-03-11T03:52:01;1.02;;;0.85;;
57718;SDS011;43561;50.090;18.522;2023-03-11T04:02:05;2.33;;;0.80;;
57718;SDS011;43561;50.090;18.522;2023-03-11T04:12:12;3.97;;;1.10;;
57718;SDS011;43561;50.090;18.522;2023-03-11T04:22:15;3.67;;;1.70;;
57718;SDS011;43561;50.090;18.522;2023-03-11T04:32:17;0.60;;;0.60;;
57718;SDS011;43561;50.090;18.522;2023-03-11T04:42:19;1.33;;;0.77;;
57718;SDS011;43561;50.090;18.522;2023-03-11T04:52:23;3.22;;;1.92;;
57718;SDS011;43561;50.090;18.522;2023-03-11T05:02:26;0.70;;;0.35;;
57718;SDS011;43561;50.090;18.522;2023-03-11T05:12:32;1.88;;;0.77;;
57718;SDS011;43561;50.090;18.522;2023-03-11T05:22:36;0.73;;;0.47;;
57718;SDS011;43561;50.090;18.522;2023-03-11T05:32:38;4.53;;;2.45;;
57718;SDS011;43561;50.090;18.522;2023-03-11T05:42:41;1.58;;;0.90;;
57718;SDS011;43561;50.090;18.522;2023-03-11T05:52:45;0.60;;;0.57;;
57718;SDS011;43561;50.090;18.522;2023-03-11T06:02:47;5.57;;;1.17;;
57718;SDS011;43561;50.090;18.522;2023-03-11T06:12:51;2.40;;;0.80;;
57718;SDS011;43561;50.090;18.522;2023-03-11T06:23:00;1.40;;;1.15;;
57718;SDS011;43561;50.090;18.522;2023-03-11T06:33:02;0.95;;;0.75;;
57718;SDS011;43561;50.090;18.522;2023-03-11T06:43:04;2.80;;;1.98;;
57718;SDS011;43561;50.090;18.522;2023-03-11T06:53:09;5.85;;;1.77;;
57718;SDS011;43561;50.090;18.522;2023-03-11T07:03:12;2.25;;;1.80;;
57718;SDS011;43561;50.090;18.522;2023-03-11T07:13:14;4.70;;;1.98;;
57718;SDS011;43561;50.090;18.522;2023-03-11T07:23:17;4.10;;;2.55;;
57718;SDS011;43561;50.090;18.522;2023-03-11T07:33:19;7.43;;;3.00;;
57718;SDS011;43561;50.090;18.522;2023-03-11T07:43:21;2.65;;;2.05;;
57718;SDS011;43561;50.090;18.522;2023-03-11T07:53:23;6.03;;;2.95;;
57718;SDS011;43561;50.090;18.522;2023-03-11T08:03:25;9.02;;;3.72;;
57718;SDS011;43561;50.090;18.522;2023-03-11T08:13:27;5.55;;;4.50;;
57718;SDS011;43561;50.090;18.522;2023-03-11T08:23:31;13.50;;;7.22;;
57718;SDS011;43561;50.090;18.522;2023-03-11T08:33:33;6.68;;;4.40;;
57718;SDS011;43561;50.090;18.522;2023-03-11T08:43:36;5.22;;;3.58;;
57718;SDS011;43561;50.090;18.522;2023-03-11T08:53:38;3.58;;;2.55;;
57718;SDS011;43561;50.090;18.522;2023-03-11T09:03:40;6.05;;;5.22;;
57718;SDS011;43561;50.090;18.522;2023-03-11T09:13:42;9.70;;;8.45;;
57718;SDS011;43561;50.090;18.522;2023-03-11T09:23:44;8.07;;;5.38;;
57718;SDS011;43561;50.090;18.522;2023-03-11T09:33:47;17.70;;;6.47;;
57718;SDS011;43561;50.090;18.522;2023-03-11T09:54:04;10.93;;;5.75;;
57718;SDS011;43561;50.090;18.522;2023-03-11T10:25:10;7.35;;;5.82;;
57718;SDS011;43561;50.090;18.522;2023-03-11T10:35:20;9.45;;;4.15;;
57718;SDS011;43561;50.090;18.522;2023-03-11T10:45:24;6.03;;;4.40;;
57718;SDS011;43561;50.090;18.522;2023-03-11T10:55:27;4.85;;;4.43;;
57718;SDS011;43561;50.090;18.522;2023-03-11T11:05:32;4.15;;;2.75;;
57718;SDS011;43561;50.090;18.522;2023-03-11T11:15:48;7.60;;;6.35;;
57718;SDS011;43561;50.090;18.522;2023-03-11T11:25:55;5.82;;;3.33;;
57718;SDS011;43561;50.090;18.522;2023-03-11T11:36:03;4.22;;;3.25;;
57718;SDS011;43561;50.090;18.522;2023-03-11T11:46:10;8.38;;;5.43;;
57718;SDS011;43561;50.090;18.522;2023-03-11T11:56:33;7.03;;;5.03;;
57718;SDS011;43561;50.090;18.522;2023-03-11T12:06:41;8.93;;;4.63;;
57718;SDS011;43561;50.090;18.522;2023-03-11T12:27:28;10.07;;;5.68;;
57718;SDS011;43561;50.090;18.522;2023-03-11T12:37:55;11.85;;;4.32;;
57718;SDS011;43561;50.090;18.522;2023-03-11T13:08:52;5.60;;;4.82;;
57718;SDS011;43561;50.090;18.522;2023-03-11T13:18:56;13.23;;;5.75;;
57718;SDS011;43561;50.090;18.522;2023-03-11T13:39:52;11.43;;;6.93;;
57718;SDS011;43561;50.090;18.522;2023-03-11T13:50:01;11.10;;;7.73;;
57718;SDS011;43561;50.090;18.522;2023-03-11T14:00:18;6.65;;;5.28;;
57718;SDS011;43561;50.090;18.522;2023-03-11T14:10:24;4.32;;;3.72;;
57718;SDS011;43561;50.090;18.522;2023-03-11T14:20:29;7.00;;;5.25;;
57718;SDS011;43561;50.090;18.522;2023-03-11T14:30:32;4.28;;;3.00;;
57718;SDS011;43561;50.090;18.522;2023-03-11T14:40:35;5.40;;;3.95;;
57718;SDS011;43561;50.090;18.522;2023-03-11T14:50:37;9.93;;;5.57;;
57718;SDS011;43561;50.090;18.522;2023-03-11T15:00:44;4.53;;;2.90;;
57718;SDS011;43561;50.090;18.522;2023-03-11T15:21:23;13.38;;;6.03;;
57718;SDS011;43561;50.090;18.522;2023-03-11T15:31:28;12.70;;;5.93;;
57718;SDS011;43561;50.090;18.522;2023-03-11T15:41:32;9.00;;;5.03;;
57718;SDS011;43561;50.090;18.522;2023-03-11T15:51:34;13.55;;;5.80;;
57718;SDS011;43561;50.090;18.522;2023-03-11T16:01:36;5.10;;;4.00;;
57718;SDS011;43561;50.090;18.522;2023-03-11T16:11:38;12.30;;;6.35;;
57718;SDS011;43561;50.090;18.522;2023-03-11T16:21:42;11.50;;;8.18;;
57718;SDS011;43561;50.090;18.522;2023-03-11T16:31:47;10.50;;;7.90;;
57718;SDS011;43561;50.090;18.522;2023-03-11T16:41:49;13.02;;;6.95;;
57718;SDS011;43561;50.090;18.522;2023-03-11T16:51:51;10.70;;;7.30;;
57718;SDS011;43561;50.090;18.522;2023-03-11T17:01:53;9.45;;;5.85;;
57718;SDS011;43561;50.090;18.522;2023-03-11T17:11:55;11.10;;;6.47;;
57718;SDS011;43561;50.090;18.522;2023-03-11T17:21:58;22.67;;;9.02;;
57718;SDS011;43561;50.090;18.522;2023-03-11T17:32:01;15.18;;;5.80;;
57718;SDS011;43561;50.090;18.522;2023-03-11T17:42:04;10.18;;;5.88;;
57718;SDS011;43561;50.090;18.522;2023-03-11T17:52:06;5.10;;;2.92;;
57718;SDS011;43561;50.090;18.522;2023-03-11T18:02:10;10.02;;;5.60;;
57718;SDS011;43561;50.090;18.522;2023-03-11T18:12:13;11.55;;;7.15;;
57718;SDS011;43561;50.090;18.522;2023-03-11T18:22:15;11.00;;;9.75;;
57718;SDS011;43561;50.090;18.522;2023-03-11T18:32:17;27.45;;;11.55;;
57718;SDS011;43561;50.090;18.522;2023-03-11T18:42:19;11.80;;;6.70;;
57718;SDS011;43561;50.090;18.522;2023-03-11T18:52:21;10.45;;;6.65;;
57718;SDS011;43561;50.090;18.522;2023-03-11T19:02:23;21.65;;;8.50;;
57718;SDS011;43561;50.090;18.522;2023-03-11T19:12:24;19.25;;;8.85;;
57718;SDS011;43561;50.090;18.522;2023-03-11T19:22:26;13.13;;;7.97;;
57718;SDS011;43561;50.090;18.522;2023-03-11T19:32:28;10.98;;;6.53;;
57718;SDS011;43561;50.090;18.522;2023-03-11T19:42:34;28.63;;;15.27;;
57718;SDS011;43561;50.090;18.522;2023-03-11T19:52:36;34.50;;;15.73;;
57718;SDS011;43561;50.090;18.522;2023-03-11T20:02:38;33.30;;;15.05;;
57718;SDS011;43561;50.090;18.522;2023-03-11T20:12:40;30.70;;;14.20;;
57718;SDS011;43561;50.090;18.522;2023-03-11T20:23:01;30.17;;;14.13;;
57718;SDS011;43561;50.090;18.522;2023-03-11T20:33:04;35.95;;;18.65;;
57718;SDS011;43561;50.090;18.522;2023-03-11T20:43:06;26.42;;;16.45;;
57718;SDS011;43561;50.090;18.522;2023-03-11T20:53:08;16.45;;;7.68;;
57718;SDS011;43561;50.090;18.522;2023-03-11T21:03:11;11.38;;;5.20;;
57718;SDS011;43561;50.090;18.522;2023-03-11T21:13:12;16.35;;;9.63;;
57718;SDS011;43561;50.090;18.522;2023-03-11T21:23:14;18.92;;;9.75;;
57718;SDS011;43561;50.090;18.522;2023-03-11T21:33:16;15.15;;;8.15;;
57718;SDS011;43561;50.090;18.522;2023-03-11T21:43:19;8.43;;;7.38;;
57718;SDS011;43561;50.090;18.522;2023-03-11T21:53:21;11.20;;;8.90;;
57718;SDS011;43561;50.090;18.522;2023-03-11T22:03:23;17.85;;;9.77;;
57718;SDS011;43561;50.090;18.522;2023-03-11T22:13:25;12.93;;;7.22;;
57718;SDS011;43561;50.090;18.522;2023-03-11T22:23:27;6.07;;;5.30;;
57718;SDS011;43561;50.090;18.522;2023-03-11T22:33:29;6.70;;;6.10;;
57718;SDS011;43561;50.090;18.522;2023-03-11T22:43:32;6.53;;;5.78;;
57718;SDS011;43561;50.090;18.522;2023-03-11T22:53:35;8.40;;;7.60;;
57718;SDS011;43561;50.090;18.522;2023-03-11T23:03:37;20.48;;;8.43;;
57718;SDS011;43561;50.090;18.522;2023-03-11T23:13:40;14.70;;;6.55;;
57718;SDS011;43561;50.090;18.522;2023-03-11T23:23:43;7.07;;;6.47;;
57718;SDS011;43561;50.090;18.522;2023-03-11T23:33:46;14.23;;;7.53;;
57718;SDS011;43561;50.090;18.522;2023-03-11T23:43:48;10.80;;;7.80;;
57718;SDS011;43561;50.090;18.522;2023-03-11T23:53:51;13.52;;;9.15;;
